You are listening to:
KOSH Fisk VFR Approach #4 - Oshkosh, Wisconsin, United States

KOSH 041853Z 21007G18KT 10SM CLR 02/M08 A3001 RMK AO2 SLP179 T00171083

If stream doesn't start automatically press the play button
If stream stops then reload player then press play